createdAt,value
2019-02-16T00:00:26.271Z,38.03
2019-02-16T00:01:25.500Z,38
2019-02-16T00:02:25.693Z,38.01
2019-02-16T00:03:25.483Z,38.01
2019-02-16T00:04:24.866Z,38.02
2019-02-16T00:05:26.726Z,38.02
2019-02-16T00:06:26.315Z,38.04
2019-02-16T00:07:25.099Z,38.01
2019-02-16T00:08:24.950Z,38.03
2019-02-16T00:09:25.037Z,38.04
2019-02-16T00:10:25.322Z,38.06
2019-02-16T00:11:25.848Z,38.06
2019-02-16T00:12:25.333Z,38.02
2019-02-16T00:13:25.174Z,38.05
2019-02-16T00:14:24.876Z,38.05
2019-02-16T00:15:25.363Z,38.09
2019-02-16T00:16:25.163Z,38.07
2019-02-16T00:17:24.857Z,38.03
2019-02-16T00:18:25.170Z,38.1
2019-02-16T00:19:25.196Z,38.04
2019-02-16T00:20:25.024Z,38.06
2019-02-16T00:21:27.147Z,38.06
2019-02-16T00:22:24.711Z,38.06
2019-02-16T00:23:24.696Z,38.08
2019-02-16T00:24:25.312Z,38.07
2019-02-16T00:25:25.316Z,38.05
2019-02-16T00:26:25.085Z,38.1
2019-02-16T00:27:25.345Z,38.1
2019-02-16T00:28:25.460Z,38.08
2019-02-16T00:29:26.015Z,38.1
2019-02-16T00:30:24.992Z,38.07
2019-02-16T00:31:25.395Z,38.09
2019-02-16T00:32:24.978Z,38.1
2019-02-16T00:33:24.923Z,38.06
2019-02-16T00:34:25.299Z,38.11
2019-02-16T00:35:25.118Z,38.09
2019-02-16T00:36:25.535Z,38.13
2019-02-16T00:37:25.305Z,38.12
2019-02-16T00:38:25.252Z,38.12
2019-02-16T00:39:25.169Z,38.09
2019-02-16T00:40:25.145Z,38.09
2019-02-16T00:41:25.000Z,38.13
2019-02-16T00:42:24.869Z,38.09
2019-02-16T00:43:25.880Z,38.12
2019-02-16T00:44:26.310Z,38.16
2019-02-16T00:45:25.344Z,38.15
2019-02-16T00:46:25.909Z,38.13
2019-02-16T00:47:25.233Z,38.1
2019-02-16T00:48:25.292Z,38.14
2019-02-16T00:49:25.146Z,38.1
2019-02-16T00:50:25.150Z,38.16
2019-02-16T00:51:25.465Z,38.16
2019-02-16T00:52:25.063Z,38.14
2019-02-16T00:53:24.848Z,38.15
2019-02-16T00:54:25.792Z,38.13
2019-02-16T00:55:25.130Z,38.15
2019-02-16T00:56:25.887Z,38.16
2019-02-16T00:57:25.637Z,38.12
2019-02-16T00:58:24.999Z,38.15
2019-02-16T00:59:28.254Z,38.14
2019-02-16T01:00:25.039Z,38.18
2019-02-16T01:01:25.179Z,38.15
2019-02-16T01:02:25.210Z,38.14
2019-02-16T01:03:24.943Z,38.12
2019-02-16T01:04:24.994Z,38.13
2019-02-16T01:05:26.027Z,38.16
2019-02-16T01:06:25.727Z,38.17
2019-02-16T01:07:26.485Z,38.15
2019-02-16T01:08:24.938Z,38.14
2019-02-16T01:09:24.949Z,38.13
2019-02-16T01:10:26.047Z,38.17
2019-02-16T01:11:25.040Z,38.21
2019-02-16T01:12:25.353Z,38.18
2019-02-16T01:13:25.253Z,38.16
2019-02-16T01:14:24.790Z,38.17
2019-02-16T01:15:25.196Z,38.2
2019-02-16T01:16:24.845Z,38.15
2019-02-16T01:17:25.235Z,38.18
2019-02-16T01:18:24.949Z,38.19
2019-02-16T01:19:25.104Z,38.19
2019-02-16T01:20:24.995Z,38.18
2019-02-16T01:21:25.099Z,38.2
2019-02-16T01:22:25.227Z,38.15
2019-02-16T01:23:26.707Z,38.22
2019-02-16T01:24:24.765Z,38.18
2019-02-16T01:25:24.933Z,38.22
2019-02-16T01:26:24.783Z,38.21
2019-02-16T01:27:24.806Z,38.19
2019-02-16T01:28:24.657Z,38.14
2019-02-16T01:29:24.792Z,38.18
2019-02-16T01:30:25.625Z,38.18
2019-02-16T01:31:25.749Z,38.18
2019-02-16T01:32:25.083Z,38.17
2019-02-16T01:33:26.881Z,38.18
2019-02-16T01:34:24.694Z,38.17
2019-02-16T01:35:24.827Z,38.19
2019-02-16T01:36:24.723Z,38.2
2019-02-16T01:37:24.773Z,38.18
2019-02-16T01:38:25.303Z,38.16
2019-02-16T01:39:25.340Z,38.19
2019-02-16T01:40:25.863Z,38.2
2019-02-16T01:41:25.795Z,38.15
2019-02-16T01:42:25.047Z,38.18
2019-02-16T01:43:24.845Z,38.18
2019-02-16T01:44:25.054Z,38.17
2019-02-16T01:45:24.875Z,38.18
2019-02-16T01:46:25.004Z,38.19
2019-02-16T01:47:26.339Z,38.21
2019-02-16T01:48:25.935Z,38.19
2019-02-16T01:49:25.815Z,38.17
2019-02-16T01:50:25.931Z,38.21
2019-02-16T01:51:32.316Z,38.16
2019-02-16T01:52:24.901Z,38.2
2019-02-16T01:53:25.334Z,38.19
2019-02-16T01:54:26.700Z,38.2
2019-02-16T01:55:25.161Z,38.2
2019-02-16T01:56:26.873Z,38.22
2019-02-16T01:57:25.358Z,38.18
2019-02-16T01:58:25.262Z,38.21
2019-02-16T01:59:25.170Z,38.23
2019-02-16T02:00:25.157Z,38.23
2019-02-16T02:01:25.366Z,38.2
2019-02-16T02:02:25.044Z,38.21
2019-02-16T02:03:25.409Z,38.22
2019-02-16T02:04:25.133Z,38.18
2019-02-16T02:05:25.073Z,38.23
2019-02-16T02:06:25.119Z,38.24
2019-02-16T02:07:25.144Z,38.22
2019-02-16T02:08:25.658Z,38.19
2019-02-16T02:09:25.455Z,38.19
2019-02-16T02:10:25.572Z,38.21
2019-02-16T02:11:26.031Z,38.19
2019-02-16T02:12:25.180Z,38.22
2019-02-16T02:13:24.992Z,38.2
2019-02-16T02:14:25.478Z,38.17
2019-02-16T02:15:25.024Z,38.18
2019-02-16T02:16:25.577Z,38.18
2019-02-16T02:17:25.328Z,38.2
2019-02-16T02:18:26.747Z,38.23
2019-02-16T02:19:25.068Z,38.23
2019-02-16T02:20:25.233Z,38.22
2019-02-16T02:21:25.313Z,38.18
2019-02-16T02:22:24.967Z,38.2
2019-02-16T02:23:24.810Z,38.21
2019-02-16T02:24:25.132Z,38.19
2019-02-16T02:25:25.126Z,38.19
2019-02-16T02:26:25.420Z,38.21
2019-02-16T02:27:25.869Z,38.19
2019-02-16T02:28:25.288Z,38.2
2019-02-16T02:29:25.110Z,38.19
2019-02-16T02:30:25.323Z,38.16
2019-02-16T02:31:24.816Z,38.2
2019-02-16T02:32:25.118Z,38.19
2019-02-16T02:33:25.728Z,38.22
2019-02-16T02:34:25.062Z,38.21
2019-02-16T02:35:25.981Z,38.18
2019-02-16T02:36:25.256Z,38.19
2019-02-16T02:37:25.780Z,38.21
2019-02-16T02:38:25.170Z,38.23
2019-02-16T02:39:25.180Z,38.21
2019-02-16T02:40:25.677Z,38.2
2019-02-16T02:41:24.859Z,38.2
2019-02-16T02:42:25.187Z,38.22
2019-02-16T02:43:25.291Z,38.21
2019-02-16T02:44:25.724Z,38.18
2019-02-16T02:45:25.049Z,38.21
2019-02-16T02:46:25.526Z,38.2
2019-02-16T02:47:25.354Z,38.2
2019-02-16T02:48:24.887Z,38.21
2019-02-16T02:49:25.063Z,38.21
2019-02-16T02:50:25.129Z,38.16
2019-02-16T02:51:25.832Z,38.21
2019-02-16T02:52:24.998Z,38.2
2019-02-16T02:53:31.782Z,38.18
2019-02-16T02:54:25.672Z,38.17
2019-02-16T02:55:25.702Z,38.18
2019-02-16T02:56:26.658Z,38.2
2019-02-16T02:57:24.790Z,38.19
2019-02-16T02:58:25.167Z,38.17
2019-02-16T02:59:25.130Z,38.15
2019-02-16T03:00:24.869Z,38.2
2019-02-16T03:01:25.774Z,38.19
2019-02-16T03:02:25.150Z,38.19
2019-02-16T03:03:25.232Z,38.2
2019-02-16T03:04:24.986Z,38.15
2019-02-16T03:05:24.879Z,38.14
2019-02-16T03:06:25.668Z,38.15
2019-02-16T03:07:25.090Z,38.18
2019-02-16T03:08:25.387Z,38.18
2019-02-16T03:09:24.844Z,38.17
2019-02-16T03:10:25.164Z,38.15
2019-02-16T03:11:24.762Z,38.17
2019-02-16T03:12:25.727Z,38.15
2019-02-16T03:13:25.319Z,38.16
2019-02-16T03:14:25.255Z,38.19
2019-02-16T03:15:25.318Z,38.21
2019-02-16T03:16:26.939Z,38.2
2019-02-16T03:17:25.778Z,38.2
2019-02-16T03:18:25.044Z,38.19
2019-02-16T03:19:25.650Z,38.19
2019-02-16T03:20:25.186Z,38.2
2019-02-16T03:21:25.879Z,38.2
2019-02-16T03:22:24.998Z,38.15
2019-02-16T03:23:24.818Z,38.19
2019-02-16T03:24:25.055Z,38.17
2019-02-16T03:25:25.037Z,38.15
2019-02-16T03:26:24.764Z,38.18
2019-02-16T03:27:25.122Z,38.16
2019-02-16T03:28:26.965Z,38.2
2019-02-16T03:29:25.229Z,38.19
2019-02-16T03:30:25.250Z,38.19
2019-02-16T03:31:25.800Z,38.18
2019-02-16T03:32:24.957Z,38.18
2019-02-16T03:33:25.154Z,38.2
2019-02-16T03:34:24.941Z,38.21
2019-02-16T03:35:26.708Z,38.18
2019-02-16T03:36:25.468Z,38.19
2019-02-16T03:37:24.947Z,38.18
2019-02-16T03:38:25.392Z,38.21
2019-02-16T03:39:25.856Z,38.21
2019-02-16T03:40:24.704Z,38.21
2019-02-16T03:41:24.752Z,38.19
2019-02-16T03:42:25.405Z,38.16
2019-02-16T03:43:25.029Z,38.2
2019-02-16T03:44:25.340Z,38.21
2019-02-16T03:45:25.226Z,38.22
2019-02-16T03:46:25.306Z,38.22
2019-02-16T03:47:25.186Z,38.19
2019-02-16T03:48:25.050Z,38.21
2019-02-16T03:49:25.032Z,38.19
2019-02-16T03:50:25.241Z,38.24
2019-02-16T03:51:24.890Z,38.22
2019-02-16T03:52:25.671Z,38.2
2019-02-16T03:53:25.177Z,38.22
2019-02-16T03:54:25.411Z,38.19
2019-02-16T03:55:24.769Z,38.21
2019-02-16T03:56:25.307Z,38.22
2019-02-16T03:57:25.105Z,38.19
2019-02-16T03:58:25.100Z,38.2
2019-02-16T03:59:25.687Z,38.19
2019-02-16T04:00:25.894Z,38.19
2019-02-16T04:01:25.644Z,38.21
2019-02-16T04:02:25.331Z,38.21
2019-02-16T04:03:25.041Z,38.18
2019-02-16T04:04:26.743Z,38.15
2019-02-16T04:05:25.624Z,38.19
2019-02-16T04:06:24.857Z,38.18
2019-02-16T04:07:25.064Z,38.19
2019-02-16T04:08:25.599Z,38.18
2019-02-16T04:09:25.054Z,38.21
2019-02-16T04:10:25.084Z,38.17
2019-02-16T04:11:25.008Z,38.19
2019-02-16T04:12:25.209Z,38.2
2019-02-16T04:13:25.058Z,38.15
2019-02-16T04:14:26.824Z,38.19
2019-02-16T04:15:24.954Z,38.18
2019-02-16T04:16:25.336Z,38.16
2019-02-16T04:17:25.085Z,38.18
2019-02-16T04:18:24.893Z,38.16
2019-02-16T04:19:25.822Z,38.17
2019-02-16T04:20:24.976Z,38.16
2019-02-16T04:21:24.956Z,38.24
2019-02-16T04:22:25.875Z,38.16
2019-02-16T04:23:25.407Z,38.18
2019-02-16T04:24:25.419Z,38.19
2019-02-16T04:25:25.197Z,38.2
2019-02-16T04:26:26.620Z,38.18
2019-02-16T04:27:25.160Z,38.15
2019-02-16T04:28:25.186Z,38.17
2019-02-16T04:29:24.868Z,38.15
2019-02-16T04:30:24.797Z,38.24
2019-02-16T04:31:25.263Z,38.17
2019-02-16T04:32:29.932Z,38.2
2019-02-16T04:33:24.907Z,38.16
2019-02-16T04:34:25.184Z,38.15
2019-02-16T04:35:24.961Z,38.17
2019-02-16T04:36:25.025Z,38.17
2019-02-16T04:37:25.396Z,38.17
2019-02-16T04:38:25.292Z,38.17
2019-02-16T04:39:25.811Z,38.17
2019-02-16T04:40:25.359Z,38.12
2019-02-16T04:41:25.480Z,38.16
2019-02-16T04:42:24.906Z,38.14
2019-02-16T04:43:25.755Z,38.13
2019-02-16T04:44:25.819Z,38.13
2019-02-16T04:45:26.104Z,38.13
2019-02-16T04:46:25.104Z,38.17
2019-02-16T04:47:25.037Z,38.15
2019-02-16T04:48:25.822Z,38.14
2019-02-16T04:49:25.297Z,38.19
2019-02-16T04:50:26.754Z,38.17
2019-02-16T04:51:25.181Z,38.16
2019-02-16T04:52:35.302Z,38.11
2019-02-16T04:53:25.340Z,38.11
2019-02-16T04:54:24.808Z,38.11
2019-02-16T04:55:24.910Z,38.12
2019-02-16T04:56:25.787Z,38.1
2019-02-16T04:57:25.725Z,38.03
2019-02-16T04:58:25.420Z,38.11
2019-02-16T04:59:24.835Z,38.08
2019-02-16T05:00:24.884Z,38.15
2019-02-16T05:01:25.217Z,38.15
2019-02-16T05:02:24.947Z,38.17
2019-02-16T05:03:24.885Z,38.18
2019-02-16T05:04:25.086Z,38.24
2019-02-16T05:05:26.224Z,38.17
2019-02-16T05:06:25.029Z,38.2
2019-02-16T05:07:25.382Z,38.19
2019-02-16T05:08:25.674Z,38.13
2019-02-16T05:09:25.178Z,38.14
2019-02-16T05:10:24.992Z,38.11
2019-02-16T05:11:26.672Z,38.06
2019-02-16T05:12:25.077Z,38.07
2019-02-16T05:13:25.221Z,38.03
2019-02-16T05:14:24.865Z,38.05
2019-02-16T05:15:25.437Z,38.03
2019-02-16T05:16:24.919Z,38.02
2019-02-16T05:17:25.304Z,38.04
2019-02-16T05:18:25.586Z,38.02
2019-02-16T05:19:26.554Z,37.98
2019-02-16T05:20:25.093Z,38.02
2019-02-16T05:21:24.916Z,38.01
2019-02-16T05:22:25.002Z,38.02
2019-02-16T05:23:25.252Z,38
2019-02-16T05:24:24.955Z,37.99
2019-02-16T05:25:25.448Z,38.02
2019-02-16T05:26:25.818Z,37.97
2019-02-16T05:27:26.347Z,37.98
2019-02-16T05:28:25.237Z,37.99
2019-02-16T05:29:25.248Z,37.95
2019-02-16T05:30:25.555Z,38.04
2019-02-16T05:31:25.361Z,38.01
2019-02-16T05:32:25.035Z,38.01
2019-02-16T05:33:25.276Z,38.01
2019-02-16T05:34:25.599Z,38.02
2019-02-16T05:35:25.422Z,38.01
2019-02-16T05:36:26.800Z,38.04
2019-02-16T05:37:24.626Z,38.07
2019-02-16T05:38:24.729Z,38.08
2019-02-16T05:39:25.245Z,38.07
2019-02-16T05:40:24.927Z,38.09
2019-02-16T05:41:25.478Z,38.07
2019-02-16T05:42:25.042Z,38.02
2019-02-16T05:43:26.725Z,38.05
2019-02-16T05:44:25.167Z,38.05
2019-02-16T05:45:24.797Z,38.01
2019-02-16T05:46:26.664Z,38.08
2019-02-16T05:47:24.976Z,38.07
2019-02-16T05:48:25.606Z,38.06
2019-02-16T05:49:24.728Z,38.07
2019-02-16T05:50:25.091Z,38.07
2019-02-16T05:51:25.599Z,38.03
2019-02-16T05:52:25.498Z,38.06
2019-02-16T05:53:26.791Z,38
2019-02-16T05:54:25.122Z,38.02
2019-02-16T05:55:25.017Z,38
2019-02-16T05:56:26.818Z,38.03
2019-02-16T05:57:24.903Z,38.01
2019-02-16T05:58:24.931Z,38
2019-02-16T05:59:24.809Z,37.97
2019-02-16T06:00:25.291Z,37.94
2019-02-16T06:01:25.678Z,38
2019-02-16T06:02:24.977Z,37.99
2019-02-16T06:03:25.107Z,38
2019-02-16T06:04:25.093Z,38
2019-02-16T06:05:26.796Z,38
2019-02-16T06:06:25.281Z,37.99
2019-02-16T06:07:24.748Z,37.99
2019-02-16T06:08:26.829Z,37.95
2019-02-16T06:09:25.651Z,37.92
2019-02-16T06:10:25.254Z,37.97
2019-02-16T06:11:25.071Z,37.92
2019-02-16T06:12:24.934Z,37.96
2019-02-16T06:13:25.736Z,37.95
2019-02-16T06:14:25.163Z,37.94
2019-02-16T06:15:25.675Z,37.9
2019-02-16T06:16:25.187Z,37.9
2019-02-16T06:17:25.067Z,37.89
2019-02-16T06:18:24.990Z,37.9
2019-02-16T06:19:25.251Z,37.88
2019-02-16T06:20:24.706Z,37.87
2019-02-16T06:21:25.474Z,37.9
2019-02-16T06:22:26.692Z,37.86
2019-02-16T06:23:24.922Z,37.86
2019-02-16T06:24:25.364Z,37.88
2019-02-16T06:25:25.364Z,37.83
2019-02-16T06:26:25.643Z,37.85
2019-02-16T06:27:25.419Z,37.86
2019-02-16T06:28:24.728Z,37.82
2019-02-16T06:29:24.752Z,37.82
2019-02-16T06:30:25.083Z,37.78
2019-02-16T06:31:25.513Z,37.82
2019-02-16T06:32:26.564Z,37.84
2019-02-16T06:33:26.116Z,37.81
2019-02-16T06:34:24.921Z,37.79
2019-02-16T06:35:25.007Z,37.76
2019-02-16T06:36:24.907Z,37.79
2019-02-16T06:37:25.100Z,37.74
2019-02-16T06:38:24.881Z,37.79
2019-02-16T06:39:24.993Z,37.72
2019-02-16T06:40:24.726Z,37.82
2019-02-16T06:41:24.947Z,37.74
2019-02-16T06:42:24.983Z,37.76
2019-02-16T06:43:25.098Z,37.74
2019-02-16T06:44:24.823Z,37.73
2019-02-16T06:45:26.762Z,37.73
2019-02-16T06:46:25.080Z,37.72
2019-02-16T06:47:25.083Z,37.71
2019-02-16T06:48:25.826Z,37.75
2019-02-16T06:49:25.204Z,37.72
2019-02-16T06:50:25.016Z,37.72
2019-02-16T06:51:26.809Z,37.67
2019-02-16T06:52:25.517Z,37.68
2019-02-16T06:53:25.838Z,36.59
2019-02-16T06:54:25.255Z,34.68
2019-02-16T06:55:24.948Z,34.31
2019-02-16T06:56:24.954Z,33.82
2019-02-16T06:57:25.098Z,33.57
2019-02-16T06:58:25.028Z,33.34
2019-02-16T06:59:25.189Z,33.92
2019-02-16T07:00:25.292Z,34.22
2019-02-16T07:01:24.769Z,34.48
2019-02-16T07:02:24.854Z,35.02
2019-02-16T07:03:25.384Z,34.93
2019-02-16T07:04:26.633Z,35.15
2019-02-16T07:05:24.873Z,35.24
2019-02-16T07:06:24.606Z,35.29
2019-02-16T07:07:25.026Z,35.49
2019-02-16T07:08:25.335Z,35.58
2019-02-16T07:09:24.870Z,35.83
2019-02-16T07:10:24.759Z,35.73
2019-02-16T07:11:24.869Z,35.68
2019-02-16T07:12:24.768Z,35.73
2019-02-16T07:13:24.695Z,35.74
2019-02-16T07:14:26.514Z,35.83
2019-02-16T07:15:25.706Z,35.88
2019-02-16T07:16:24.861Z,35.77
2019-02-16T07:17:25.206Z,35.93
2019-02-16T07:18:25.021Z,36.17
2019-02-16T07:19:24.837Z,36.18
2019-02-16T07:20:25.195Z,36.24
2019-02-16T07:21:25.040Z,36.22
2019-02-16T07:22:25.036Z,36.24
2019-02-16T07:23:25.255Z,36.21
2019-02-16T07:24:26.598Z,36.29
2019-02-16T07:25:25.455Z,36.22
2019-02-16T07:26:24.930Z,36.28
2019-02-16T07:27:25.253Z,36.25
2019-02-16T07:28:25.207Z,36.31
2019-02-16T07:29:25.390Z,36.27
2019-02-16T07:30:24.891Z,36.29
2019-02-16T07:31:25.396Z,36.28
2019-02-16T07:32:25.096Z,36.3
2019-02-16T07:33:24.863Z,36.33
2019-02-16T07:34:26.652Z,36.3
2019-02-16T07:35:26.041Z,36.3
2019-02-16T07:36:25.671Z,36.32
2019-02-16T07:37:24.949Z,36.37
2019-02-16T07:38:24.789Z,36.3
2019-02-16T07:39:25.055Z,36.31
2019-02-16T07:40:25.371Z,36.32
2019-02-16T07:41:25.328Z,36.36
2019-02-16T07:42:25.166Z,36.36
2019-02-16T07:43:24.985Z,36.41
2019-02-16T07:44:24.681Z,36.38
2019-02-16T07:45:25.117Z,36.42
2019-02-16T07:46:25.299Z,36.41
2019-02-16T07:47:24.889Z,36.4
2019-02-16T07:48:24.763Z,36.42
2019-02-16T07:49:24.802Z,36.45
2019-02-16T07:50:25.531Z,36.48
2019-02-16T07:51:25.114Z,36.48
2019-02-16T07:52:25.073Z,36.51
2019-02-16T07:53:31.677Z,36.5
2019-02-16T07:54:24.801Z,36.52
2019-02-16T07:55:25.683Z,36.53
2019-02-16T07:56:24.953Z,36.48
2019-02-16T07:57:25.917Z,36.5
2019-02-16T07:58:24.885Z,36.54
2019-02-16T07:59:24.832Z,36.53
2019-02-16T08:00:25.096Z,36.56
2019-02-16T08:01:25.118Z,36.58
2019-02-16T08:02:24.718Z,36.59
2019-02-16T08:03:25.502Z,36.61
2019-02-16T08:04:25.732Z,36.62
2019-02-16T08:05:24.867Z,36.65
2019-02-16T08:06:25.264Z,36.6
2019-02-16T08:07:24.741Z,36.64
2019-02-16T08:08:25.095Z,36.61
2019-02-16T08:09:25.553Z,36.66
2019-02-16T08:10:24.859Z,36.63
2019-02-16T08:11:24.722Z,36.64
2019-02-16T08:12:24.767Z,36.64
2019-02-16T08:13:25.622Z,36.66
2019-02-16T08:14:25.281Z,36.68
2019-02-16T08:15:24.824Z,36.69
2019-02-16T08:16:24.738Z,36.72
2019-02-16T08:17:25.237Z,36.68
2019-02-16T08:18:25.456Z,36.7
2019-02-16T08:19:25.956Z,36.72
2019-02-16T08:20:26.704Z,36.67
2019-02-16T08:21:24.705Z,36.68
2019-02-16T08:22:24.877Z,36.64
2019-02-16T08:23:24.912Z,36.62
2019-02-16T08:24:25.202Z,36.72
2019-02-16T08:25:25.183Z,36.65
2019-02-16T08:26:24.726Z,36.73
2019-02-16T08:27:24.815Z,36.71
2019-02-16T08:28:24.824Z,36.76
2019-02-16T08:29:24.874Z,36.67
2019-02-16T08:30:24.664Z,36.69
2019-02-16T08:31:26.890Z,36.78
2019-02-16T08:32:24.774Z,36.73
2019-02-16T08:33:24.653Z,36.68
2019-02-16T08:34:25.040Z,36.7
2019-02-16T08:35:25.175Z,36.71
2019-02-16T08:36:25.006Z,36.73
2019-02-16T08:37:25.067Z,36.77
2019-02-16T08:38:24.725Z,36.73
2019-02-16T08:39:25.182Z,36.74
2019-02-16T08:40:26.004Z,36.76
2019-02-16T08:41:24.888Z,36.81
2019-02-16T08:42:24.734Z,36.75
2019-02-16T08:43:24.928Z,36.75
2019-02-16T08:44:25.342Z,36.73
2019-02-16T08:45:24.710Z,36.79
2019-02-16T08:46:24.669Z,36.82
2019-02-16T08:47:24.924Z,36.68
2019-02-16T08:48:24.783Z,36.74
2019-02-16T08:49:24.809Z,36.76
2019-02-16T08:50:25.048Z,36.77
2019-02-16T08:51:24.970Z,36.77
2019-02-16T08:52:25.211Z,36.72
2019-02-16T08:53:24.665Z,36.78
2019-02-16T08:54:24.756Z,36.77
2019-02-16T08:55:25.493Z,36.75
2019-02-16T08:56:24.616Z,36.77
2019-02-16T08:57:26.599Z,36.78
2019-02-16T08:58:24.756Z,36.64
2019-02-16T08:59:24.862Z,36.79
2019-02-16T09:00:24.807Z,36.7
2019-02-16T09:01:27.717Z,36.75
2019-02-16T09:02:24.836Z,36.88
2019-02-16T09:03:24.614Z,36.84
2019-02-16T09:04:25.139Z,36.76
2019-02-16T09:05:25.165Z,36.8
2019-02-16T09:06:24.801Z,36.83
2019-02-16T09:07:25.197Z,36.75
2019-02-16T09:08:24.715Z,36.8
2019-02-16T09:09:25.208Z,36.83
2019-02-16T09:10:26.448Z,36.76
2019-02-16T09:11:24.666Z,36.75
2019-02-16T09:12:24.807Z,36.79
2019-02-16T09:13:25.552Z,36.82
2019-02-16T09:14:24.626Z,36.79
2019-02-16T09:15:24.733Z,36.73
2019-02-16T09:16:24.656Z,36.81
2019-02-16T09:17:24.705Z,36.76
2019-02-16T09:18:24.821Z,36.77
2019-02-16T09:19:24.702Z,36.8
2019-02-16T09:20:25.031Z,36.79
2019-02-16T09:21:25.052Z,37
2019-02-16T09:22:24.651Z,37.14
2019-02-16T09:23:24.717Z,37.15
2019-02-16T09:24:25.132Z,37.17
2019-02-16T09:25:24.987Z,37.23
2019-02-16T09:26:25.003Z,37.25
2019-02-16T09:27:25.102Z,37.28
2019-02-16T09:28:24.670Z,37.36
2019-02-16T09:29:26.601Z,37.28
2019-02-16T09:30:24.853Z,37.48
2019-02-16T09:31:24.661Z,37.41
2019-02-16T09:32:25.144Z,37.67
2019-02-16T09:33:25.116Z,37.48
2019-02-16T09:34:24.960Z,37.27
2019-02-16T09:35:25.068Z,37.46
2019-02-16T09:36:24.911Z,37.38
2019-02-16T09:37:24.960Z,37.26
2019-02-16T09:38:25.008Z,37.13
2019-02-16T09:39:25.778Z,36.82
2019-02-16T09:40:24.692Z,36.81
2019-02-16T09:41:25.001Z,37.11
2019-02-16T09:42:24.889Z,37.05
2019-02-16T09:43:25.057Z,37.29
2019-02-16T09:44:24.978Z,37.46
2019-02-16T09:45:25.258Z,37.16
2019-02-16T09:46:25.125Z,37.2
2019-02-16T09:47:24.860Z,37.43
2019-02-16T09:48:25.040Z,37.27
2019-02-16T09:49:25.235Z,37.27
2019-02-16T09:50:24.969Z,37.35
2019-02-16T09:51:26.604Z,37.25
2019-02-16T09:52:25.035Z,37.3
2019-02-16T09:53:24.681Z,37.38
2019-02-16T09:54:24.638Z,37.19
2019-02-16T09:55:25.324Z,37.28
2019-02-16T09:56:25.327Z,37.36
2019-02-16T09:57:24.915Z,37.37
2019-02-16T09:58:24.722Z,37.29
2019-02-16T09:59:24.705Z,37.24
2019-02-16T10:00:24.803Z,37.22
2019-02-16T10:01:24.865Z,37.41
2019-02-16T10:02:25.043Z,37.4
2019-02-16T10:03:25.334Z,37.52
2019-02-16T10:04:25.032Z,37.56
2019-02-16T10:05:24.876Z,37.57
2019-02-16T10:06:25.507Z,37.65
2019-02-16T10:07:25.909Z,37.53
2019-02-16T10:08:26.613Z,37.59
2019-02-16T10:09:25.030Z,37.68
2019-02-16T10:10:24.799Z,37.64
2019-02-16T10:11:25.032Z,37.61
2019-02-16T10:12:24.941Z,37.6
2019-02-16T10:13:24.505Z,37.58
2019-02-16T10:14:24.636Z,37.57
2019-02-16T10:15:25.048Z,37.68
2019-02-16T10:16:24.660Z,37.64
2019-02-16T10:17:26.243Z,37.66
2019-02-16T10:18:24.855Z,37.6
2019-02-16T10:19:24.864Z,37.68
2019-02-16T10:20:24.883Z,37.6
2019-02-16T10:21:25.090Z,37.61
2019-02-16T10:22:24.715Z,37.62
2019-02-16T10:23:24.994Z,37.59
2019-02-16T10:24:25.116Z,37.46
2019-02-16T10:25:25.472Z,37.4
2019-02-16T10:26:24.650Z,37.16
2019-02-16T10:27:25.042Z,36.98
2019-02-16T10:28:25.453Z,37.19
2019-02-16T10:29:26.685Z,37.62
2019-02-16T10:30:25.164Z,37.67
2019-02-16T10:31:26.490Z,37.32
2019-02-16T10:32:26.697Z,37.34
2019-02-16T10:33:25.078Z,37.74
2019-02-16T10:34:24.885Z,37.58
2019-02-16T10:35:25.115Z,37.66
2019-02-16T10:36:24.854Z,37.73
2019-02-16T10:37:26.493Z,37.74
2019-02-16T10:38:24.803Z,37.78
2019-02-16T10:39:25.315Z,37.91
2019-02-16T10:40:24.740Z,38.25
2019-02-16T10:41:24.853Z,37.86
2019-02-16T10:42:27.874Z,37.56
2019-02-16T10:43:24.935Z,37.52
2019-02-16T10:44:26.712Z,37.42
2019-02-16T10:45:24.689Z,37.49
2019-02-16T10:46:24.868Z,37.66
2019-02-16T10:47:24.991Z,37.56
2019-02-16T10:48:25.092Z,37.55
2019-02-16T10:49:25.765Z,37.54
2019-02-16T10:50:25.922Z,37.63
2019-02-16T10:51:24.797Z,37.68
2019-02-16T10:52:24.781Z,37.74
2019-02-16T10:53:24.823Z,37.74
2019-02-16T10:54:29.663Z,37.79
2019-02-16T10:55:24.919Z,37.79
2019-02-16T10:56:25.147Z,37.84
2019-02-16T10:57:24.941Z,37.89
2019-02-16T10:58:25.057Z,37.93
2019-02-16T10:59:25.297Z,37.89
2019-02-16T11:00:25.181Z,37.92
2019-02-16T11:01:25.044Z,37.79
2019-02-16T11:02:24.712Z,37.84
2019-02-16T11:03:26.565Z,37.75
2019-02-16T11:04:24.811Z,37.73
2019-02-16T11:05:24.678Z,37.59
2019-02-16T11:06:26.590Z,37.64
2019-02-16T11:07:24.936Z,37.92
2019-02-16T11:08:24.828Z,37.86
2019-02-16T11:09:25.001Z,38.3
2019-02-16T11:10:24.824Z,38.07
2019-02-16T11:11:25.171Z,38.11
2019-02-16T11:12:25.048Z,38.1
2019-02-16T11:13:26.055Z,38
2019-02-16T11:14:24.715Z,38.04
2019-02-16T11:15:24.971Z,38.02
2019-02-16T11:16:24.967Z,38
2019-02-16T11:17:24.668Z,37.9
2019-02-16T11:18:24.994Z,37.82
2019-02-16T11:19:24.999Z,37.81
2019-02-16T11:20:25.042Z,37.83
2019-02-16T11:21:24.933Z,37.79
2019-02-16T11:22:24.582Z,37.8
2019-02-16T11:23:24.768Z,37.75
2019-02-16T11:24:25.147Z,37.85
2019-02-16T11:25:24.901Z,37.69
2019-02-16T11:26:25.090Z,37.76
2019-02-16T11:27:25.747Z,37.79
2019-02-16T11:28:24.859Z,37.79
2019-02-16T11:29:24.946Z,37.84
2019-02-16T11:30:24.766Z,37.77
2019-02-16T11:31:24.653Z,37.8
2019-02-16T11:32:25.715Z,37.81
2019-02-16T11:33:25.530Z,37.76
2019-02-16T11:34:24.474Z,37.84
2019-02-16T11:35:24.932Z,37.79
2019-02-16T11:36:25.137Z,37.77
2019-02-16T11:37:25.091Z,37.82
2019-02-16T11:38:24.930Z,37.8
2019-02-16T11:39:24.828Z,37.95
2019-02-16T11:40:24.698Z,38.12
2019-02-16T11:41:24.837Z,38.25
2019-02-16T11:42:24.743Z,38.02
2019-02-16T11:43:24.979Z,37.88
2019-02-16T11:44:24.826Z,38.02
2019-02-16T11:45:24.641Z,37.93
2019-02-16T11:46:24.769Z,37.99
2019-02-16T11:47:24.708Z,38.04
2019-02-16T11:48:25.143Z,38.08
2019-02-16T11:49:26.360Z,38.03
2019-02-16T11:50:25.040Z,38.03
2019-02-16T11:51:26.534Z,38.13
2019-02-16T11:52:26.798Z,38.08
2019-02-16T11:53:24.875Z,38.09
2019-02-16T11:54:25.622Z,38.14
2019-02-16T11:55:24.808Z,38.02
2019-02-16T11:56:24.758Z,38.07
2019-02-16T11:57:25.201Z,37.98
2019-02-16T11:58:24.720Z,37.95
2019-02-16T11:59:24.828Z,38.04
2019-02-16T12:00:24.717Z,38.07
2019-02-16T12:01:24.950Z,37.97
2019-02-16T12:02:24.477Z,37.88
2019-02-16T12:03:25.199Z,37.88
2019-02-16T12:04:24.914Z,37.78
2019-02-16T12:05:24.946Z,37.8
2019-02-16T12:06:24.661Z,37.79
2019-02-16T12:07:25.265Z,37.77
2019-02-16T12:08:24.866Z,37.75
2019-02-16T12:09:24.798Z,37.74
2019-02-16T12:10:24.644Z,37.74
2019-02-16T12:11:26.571Z,37.73
2019-02-16T12:12:25.105Z,37.67
2019-02-16T12:13:24.962Z,37.7
2019-02-16T12:14:24.825Z,37.66
2019-02-16T12:15:25.016Z,37.67
2019-02-16T12:16:25.912Z,37.68
2019-02-16T12:17:26.627Z,37.67
2019-02-16T12:18:25.059Z,37.7
2019-02-16T12:19:24.694Z,37.68
2019-02-16T12:20:34.076Z,37.71
2019-02-16T12:21:24.706Z,37.67
2019-02-16T12:22:25.245Z,37.7
2019-02-16T12:23:26.528Z,37.69
2019-02-16T12:24:25.192Z,37.63
2019-02-16T12:25:24.706Z,37.6
2019-02-16T12:26:24.790Z,37.65
2019-02-16T12:27:24.785Z,37.64
2019-02-16T12:28:24.787Z,37.62
2019-02-16T12:29:24.610Z,37.64
2019-02-16T12:30:24.952Z,37.63
2019-02-16T12:31:24.710Z,37.65
2019-02-16T12:32:24.935Z,37.66
2019-02-16T12:33:24.991Z,37.65
2019-02-16T12:34:24.803Z,37.63
2019-02-16T12:35:24.943Z,37.62
2019-02-16T12:36:25.346Z,37.61
2019-02-16T12:37:24.629Z,37.66
2019-02-16T12:38:25.451Z,37.63
2019-02-16T12:39:25.056Z,37.61
2019-02-16T12:40:24.586Z,37.64
2019-02-16T12:41:25.135Z,37.67
2019-02-16T12:42:24.983Z,37.63
2019-02-16T12:43:24.843Z,37.63
2019-02-16T12:44:25.250Z,37.65
2019-02-16T12:45:24.579Z,37.63
2019-02-16T12:46:24.635Z,37.58
2019-02-16T12:47:24.964Z,37.6
2019-02-16T12:48:24.791Z,37.6
2019-02-16T12:49:24.721Z,37.62
2019-02-16T12:50:24.891Z,37.64
2019-02-16T12:51:24.945Z,37.66
2019-02-16T12:52:26.423Z,37.67
2019-02-16T12:53:24.787Z,37.7
2019-02-16T12:54:24.855Z,37.66
2019-02-16T12:55:24.665Z,37.66
2019-02-16T12:56:25.022Z,37.58